Time;durP1;ratioP1;P1;durP2;ratioP2;P2;SDS_P1;SDS_P2;PMS_P1;PMS_P2;Temp;Humidity;BMP_temperature;BMP_pressure;BME280_temperature;BME280_humidity;BME280_pressure;Samples;Min_cycle;Max_cycle;Signal;HPM_P1;HPM_P2
2022/12/16 00:02:07;;;;;;;68.90;34.90;;;-6.10;99.90;;;;;;5219863;28;20199;-48
2022/12/16 00:04:38;;;;;;;72.37;34.20;;;-6.20;99.90;;;;;;5218162;28;20210;-50
2022/12/16 00:07:08;;;;;;;86.33;36.97;;;-6.20;99.90;;;;;;5220393;28;20183;-49
2022/12/16 00:09:39;;;;;;;68.80;34.70;;;-6.20;99.90;;;;;;5222871;28;20185;-49
2022/12/16 00:12:10;;;;;;;79.97;36.23;;;-6.20;99.90;;;;;;5215469;28;20202;-48
2022/12/16 00:14:40;;;;;;;70.30;35.73;;;-6.20;99.90;;;;;;5217420;28;20253;-48
2022/12/16 00:17:11;;;;;;;77.93;35.40;;;-6.20;99.90;;;;;;5219884;28;20184;-48
2022/12/16 00:19:41;;;;;;;81.90;37.17;;;-6.20;99.90;;;;;;5215299;28;20188;-47
2022/12/16 00:22:12;;;;;;;75.47;34.80;;;-6.20;99.90;;;;;;5226905;28;20211;-47
2022/12/16 00:24:43;;;;;;;80.87;35.13;;;-6.20;99.90;;;;;;5224561;28;20196;-49
2022/12/16 00:27:13;;;;;;;74.53;33.90;;;-6.20;99.90;;;;;;5220229;28;20635;-46
2022/12/16 00:29:44;;;;;;;77.57;33.93;;;-6.30;99.90;;;;;;5222537;28;20545;-48
2022/12/16 00:32:15;;;;;;;74.13;33.30;;;-6.40;99.90;;;;;;5221038;28;20645;-48
2022/12/16 00:34:45;;;;;;;79.30;34.43;;;-6.40;99.90;;;;;;5216473;28;20300;-49
2022/12/16 00:37:16;;;;;;;79.27;35.27;;;-6.40;99.90;;;;;;5216627;28;20238;-46
2022/12/16 00:39:47;;;;;;;74.43;34.80;;;-6.30;99.90;;;;;;5220045;28;20183;-49
2022/12/16 00:42:17;;;;;;;67.80;33.63;;;-6.30;99.90;;;;;;5222577;28;20210;-48
2022/12/16 00:44:48;;;;;;;81.17;39.13;;;-6.30;99.90;;;;;;5237654;28;20194;-47
2022/12/16 00:47:18;;;;;;;97.13;39.40;;;-6.30;99.90;;;;;;5219810;28;20662;-48
2022/12/16 00:49:49;;;;;;;87.20;37.20;;;-6.30;99.90;;;;;;5221659;28;20647;-48
2022/12/16 00:52:20;;;;;;;82.10;37.40;;;-6.30;99.90;;;;;;5200138;28;20183;-47
2022/12/16 00:54:50;;;;;;;80.43;35.90;;;-6.30;99.90;;;;;;5221539;28;20575;-48
2022/12/16 00:57:21;;;;;;;76.70;37.10;;;-6.40;99.90;;;;;;5213783;28;20183;-48
2022/12/16 00:59:52;;;;;;;92.80;37.83;;;-6.40;99.90;;;;;;5227678;28;20183;-48
2022/12/16 01:02:22;;;;;;;80.20;37.03;;;-6.30;99.90;;;;;;5204183;28;20428;-51
2022/12/16 01:04:53;;;;;;;97.07;40.43;;;-6.30;99.90;;;;;;5215703;28;20265;-48
2022/12/16 01:07:24;;;;;;;82.30;36.37;;;-6.30;99.90;;;;;;5215050;28;20317;-48
2022/12/16 01:09:54;;;;;;;88.60;37.17;;;-6.30;99.90;;;;;;5213722;28;20183;-49
2022/12/16 01:12:25;;;;;;;79.47;36.40;;;-6.30;99.90;;;;;;5220841;28;20621;-50
2022/12/16 01:14:55;;;;;;;77.93;35.90;;;-6.30;99.90;;;;;;5221276;28;20640;-51
2022/12/16 01:17:26;;;;;;;75.10;32.63;;;-6.20;99.90;;;;;;5216950;28;20219;-49
2022/12/16 01:19:57;;;;;;;71.40;31.50;;;-6.20;99.90;;;;;;5224073;28;20286;-48
2022/12/16 01:22:31;;;;;;;83.97;34.07;;;-6.20;99.90;;;;;;5217435;28;20555;-47
2022/12/16 01:25:02;;;;;;;70.83;32.47;;;-6.20;99.90;;;;;;5223171;28;20666;-48
2022/12/16 01:27:33;;;;;;;71.67;32.50;;;-6.30;99.90;;;;;;5224127;28;20535;-50
2022/12/16 01:30:04;;;;;;;71.97;34.13;;;-6.30;99.90;;;;;;5219866;28;20512;-49
2022/12/16 01:32:35;;;;;;;69.93;33.03;;;-6.30;99.90;;;;;;5216120;28;20184;-49
2022/12/16 01:35:06;;;;;;;71.33;31.70;;;-6.30;99.90;;;;;;5222803;28;20835;-47
2022/12/16 01:37:37;;;;;;;80.00;34.87;;;-6.30;99.90;;;;;;5225258;28;20444;-47
2022/12/16 01:40:17;;;;;;;89.73;35.90;;;-6.40;99.90;;;;;;5224441;28;20433;-51
2022/12/16 01:42:48;;;;;;;68.93;32.30;;;-6.40;99.90;;;;;;5225342;28;20206;-51
2022/12/16 01:45:29;;;;;;;61.50;31.73;;;-6.40;99.90;;;;;;5226943;28;20510;-48
2022/12/16 01:48:38;;;;;;;77.10;34.63;;;-6.40;99.90;;;;;;5233518;28;20233;-48
2022/12/16 01:51:16;;;;;;;69.53;31.53;;;-6.50;99.90;;;;;;5185370;28;20437;-49
2022/12/16 01:53:49;;;;;;;59.70;30.10;;;-6.40;99.90;;;;;;5227603;28;20472;-48
2022/12/16 01:56:23;;;;;;;62.53;31.67;;;-6.40;99.90;;;;;;5221669;28;20448;-47
2022/12/16 01:58:54;;;;;;;73.13;32.83;;;-6.40;99.90;;;;;;5223164;28;20866;-47
2022/12/16 02:01:25;;;;;;;64.63;30.47;;;-6.40;99.90;;;;;;5199633;28;20461;-47
2022/12/16 02:04:00;;;;;;;67.63;31.40;;;-6.50;99.90;;;;;;5217799;28;20462;-47
2022/12/16 02:06:31;;;;;;;65.80;29.43;;;-6.50;99.90;;;;;;5223759;28;20185;-48
2022/12/16 02:09:06;;;;;;;74.87;32.30;;;-6.50;99.90;;;;;;5229594;28;20504;-47
2022/12/16 02:12:00;;;;;;;68.07;31.80;;;-6.50;99.90;;;;;;5224023;28;20179;-47
2022/12/16 02:14:45;;;;;;;74.67;33.53;;;-6.50;99.90;;;;;;5205056;28;20461;-48
2022/12/16 02:17:19;;;;;;;70.63;32.60;;;-6.50;99.90;;;;;;5217619;28;20437;-48
2022/12/16 02:20:08;;;;;;;64.83;30.23;;;-6.50;99.90;;;;;;5226405;28;20438;-47
2022/12/16 02:22:50;;;;;;;72.60;30.77;;;-6.50;99.90;;;;;;5226873;28;20603;-49
2022/12/16 02:25:39;;;;;;;69.97;33.67;;;-6.50;99.90;;;;;;5224082;28;20787;-48
2022/12/16 02:28:38;;;;;;;63.37;30.27;;;-6.50;99.90;;;;;;5219198;28;20439;-50
2022/12/16 02:31:41;;;;;;;70.27;31.60;;;-6.50;99.90;;;;;;5221876;28;20480;-50
2022/12/16 02:34:34;;;;;;;57.90;28.83;;;-6.60;99.90;;;;;;5212670;28;20590;-48
2022/12/16 02:37:23;;;;;;;81.53;33.57;;;-6.60;99.90;;;;;;5211629;28;20434;-48
2022/12/16 02:40:20;;;;;;;59.53;29.63;;;-6.60;99.90;;;;;;5208642;28;20437;-50
2022/12/16 02:42:59;;;;;;;59.60;30.57;;;-6.60;99.90;;;;;;5217471;28;20472;-48
2022/12/16 02:45:31;;;;;;;82.47;32.03;;;-6.60;99.90;;;;;;5224849;28;20910;-48
2022/12/16 02:48:02;;;;;;;64.60;32.00;;;-6.70;99.90;;;;;;5225732;28;20436;-48
2022/12/16 02:50:38;;;;;;;65.73;31.30;;;-6.70;99.90;;;;;;5216327;28;20429;-48
2022/12/16 02:53:09;;;;;;;70.27;32.43;;;-6.70;99.90;;;;;;5221829;28;20462;-48
2022/12/16 02:55:49;;;;;;;70.43;31.00;;;-6.70;99.90;;;;;;5217600;28;20437;-49
2022/12/16 02:58:41;;;;;;;64.93;30.70;;;-6.70;99.90;;;;;;5222009;28;20476;-48
2022/12/16 03:01:21;;;;;;;70.33;29.80;;;-6.70;99.90;;;;;;5220802;28;20461;-48
2022/12/16 03:04:00;;;;;;;65.07;30.17;;;-6.80;99.90;;;;;;5217906;28;20485;-49
2022/12/16 03:06:34;;;;;;;62.57;30.80;;;-6.80;99.90;;;;;;5225143;28;20928;-49
2022/12/16 03:09:09;;;;;;;65.87;30.10;;;-6.70;99.90;;;;;;5227791;28;20430;-48
2022/12/16 03:11:42;;;;;;;65.80;30.30;;;-6.70;99.90;;;;;;5219852;28;20533;-49
2022/12/16 03:14:16;;;;;;;67.03;32.47;;;-6.70;99.90;;;;;;5225775;28;20840;-47
2022/12/16 03:16:49;;;;;;;68.63;29.87;;;-6.70;99.90;;;;;;5218626;28;20482;-51
2022/12/16 03:19:22;;;;;;;65.33;30.90;;;-6.70;99.90;;;;;;5220103;28;20531;-49
2022/12/16 03:22:24;;;;;;;68.33;30.93;;;-6.70;99.90;;;;;;5219032;28;20472;-48
2022/12/16 03:24:55;;;;;;;66.53;30.30;;;-6.70;99.90;;;;;;5216526;28;20461;-49
2022/12/16 03:27:41;;;;;;;60.47;30.10;;;-6.70;99.90;;;;;;5225302;28;20429;-48
2022/12/16 03:30:44;;;;;;;66.87;28.83;;;-6.70;99.90;;;;;;5241870;28;20428;-48
2022/12/16 03:33:37;;;;;;;61.33;29.90;;;-6.70;99.90;;;;;;5213201;28;20461;-51
2022/12/16 03:36:21;;;;;;;60.53;29.83;;;-6.80;99.90;;;;;;5217357;28;20449;-49
2022/12/16 03:38:54;;;;;;;65.87;30.40;;;-6.80;99.90;;;;;;5224983;28;20991;-50
2022/12/16 03:41:25;;;;;;;70.20;32.90;;;-6.90;99.90;;;;;;5205708;28;20467;-48
2022/12/16 03:43:56;;;;;;;66.50;32.10;;;-6.90;99.90;;;;;;5220359;28;20511;-47
2022/12/16 03:46:27;;;;;;;73.13;32.27;;;-6.90;99.90;;;;;;5219432;28;20430;-48
2022/12/16 03:48:58;;;;;;;70.90;30.53;;;-6.90;99.90;;;;;;5217580;28;20167;-49
2022/12/16 03:51:28;;;;;;;83.23;31.33;;;-6.90;99.90;;;;;;5227270;28;20183;-47
2022/12/16 03:53:59;;;;;;;54.80;28.77;;;-6.90;99.90;;;;;;5220082;28;20203;-48
2022/12/16 03:56:30;;;;;;;65.97;29.80;;;-6.90;99.90;;;;;;5223129;28;20720;-51
2022/12/16 03:59:00;;;;;;;62.00;31.93;;;-6.90;99.90;;;;;;5223502;28;20186;-49
2022/12/16 04:01:31;;;;;;;64.13;31.90;;;-6.90;99.90;;;;;;5217877;28;20603;-48
2022/12/16 04:04:02;;;;;;;60.07;29.23;;;-6.80;99.90;;;;;;5224463;28;20608;-49
2022/12/16 04:06:32;;;;;;;59.07;30.27;;;-6.80;99.90;;;;;;5224440;28;20175;-46
2022/12/16 04:09:03;;;;;;;77.27;31.13;;;-6.70;99.90;;;;;;5222883;28;20190;-52
2022/12/16 04:25:41;;;;;;;71.10;30.60;;;-6.80;99.90;;;;;;5221334;28;20433;-50
2022/12/16 04:28:11;;;;;;;74.20;30.80;;;-6.80;99.90;;;;;;5220027;28;20768;-48
2022/12/16 04:30:42;;;;;;;72.23;32.40;;;-6.80;99.90;;;;;;5203506;28;20183;-51
